createdAt,value
2023-02-24T00:01:13.987Z,90.22
2023-02-24T00:04:15.659Z,90.99
2023-02-24T00:07:18.397Z,91.97
2023-02-24T00:10:21.518Z,92.57
2023-02-24T00:13:23.203Z,92.97
2023-02-24T00:16:24.964Z,93.33
2023-02-24T00:19:29.393Z,92.83
2023-02-24T00:22:31.040Z,93.46
2023-02-24T00:25:32.770Z,93.46
2023-02-24T00:28:35.568Z,92.32
2023-02-24T00:31:39.751Z,92.49
2023-02-24T00:34:42.005Z,92.19
2023-02-24T00:37:43.669Z,90.46
2023-02-24T00:40:45.493Z,90.89
2023-02-24T00:43:47.147Z,92.75
2023-02-24T00:46:48.797Z,93.08
2023-02-24T00:49:50.514Z,92.09
2023-02-24T00:52:52.246Z,92.62
2023-02-24T00:56:02.253Z,91.84
2023-02-24T00:59:03.944Z,91.14
2023-02-24T01:02:07.290Z,90.75
2023-02-24T01:05:09.610Z,89.59
2023-02-24T01:08:11.263Z,88.39
2023-02-24T01:11:33.701Z,88.23
2023-02-24T01:14:36.301Z,86.70
2023-02-24T01:17:38.116Z,85.68
2023-02-24T01:20:39.785Z,84.84
2023-02-24T01:23:42.691Z,84.09
2023-02-24T01:26:44.453Z,83.11
2023-02-24T01:29:47.827Z,81.99
2023-02-24T01:32:49.776Z,81.34
2023-02-24T01:35:51.600Z,81.54
2023-02-24T01:38:53.394Z,80.87
2023-02-24T01:41:55.073Z,80.41
2023-02-24T01:45:12.713Z,78.96
2023-02-24T01:48:17.325Z,78.89
2023-02-24T01:51:19.381Z,79.85
2023-02-24T01:54:25.333Z,79.81
2023-02-24T01:57:31.452Z,79.89
2023-02-24T02:03:38.391Z,80.33
2023-02-24T02:06:41.677Z,79.93
2023-02-24T02:09:45.676Z,78.74
2023-02-24T02:12:47.491Z,80.09
2023-02-24T02:16:15.282Z,80.23
2023-02-24T02:19:38.012Z,80.81
2023-02-24T02:23:09.588Z,80.91
2023-02-24T02:26:33.229Z,80.70
2023-02-24T02:30:14.220Z,80.65
2023-02-24T02:33:47.962Z,81.43
2023-02-24T02:36:54.977Z,81.67
2023-02-24T02:40:08.682Z,82.21
2023-02-24T02:43:20.498Z,82.23
2023-02-24T02:46:56.561Z,82.33
2023-02-24T02:50:18.502Z,82.73
2023-02-24T02:53:26.625Z,83.44
2023-02-24T02:56:30.701Z,83.51
2023-02-24T02:59:37.508Z,83.74
2023-02-24T03:02:44.540Z,83.95
2023-02-24T03:06:00.746Z,84.20
2023-02-24T03:09:25.576Z,83.03
2023-02-24T03:12:32.448Z,83.78
2023-02-24T03:15:34.996Z,86.11
2023-02-24T03:18:44.810Z,86.03
2023-02-24T03:21:55.173Z,85.20
2023-02-24T03:24:56.891Z,86.55
2023-02-24T03:28:05.985Z,86.65
2023-02-24T03:31:20.129Z,89.03
2023-02-24T03:34:37.905Z,89.33
2023-02-24T03:37:39.717Z,90.00
2023-02-24T03:40:43.511Z,90.29
2023-02-24T03:43:50.039Z,90.06
2023-02-24T03:46:53.053Z,90.79
2023-02-24T03:49:54.718Z,91.00
2023-02-24T03:53:33.302Z,90.71
2023-02-24T03:56:58.015Z,91.45
2023-02-24T04:00:22.826Z,91.92
2023-02-24T04:03:33.656Z,92.27
2023-02-24T04:06:55.803Z,92.88
2023-02-24T04:10:52.586Z,92.33
2023-02-24T04:14:02.151Z,92.88
2023-02-24T04:17:30.555Z,93.11
2023-02-24T04:20:34.532Z,93.80
2023-02-24T04:23:42.146Z,92.51
2023-02-24T04:26:46.911Z,93.38
2023-02-24T04:29:54.342Z,94.30
2023-02-24T04:32:56.726Z,94.66
2023-02-24T04:35:58.710Z,95.20
2023-02-24T04:39:00.404Z,95.43
2023-02-24T04:42:02.036Z,95.70
2023-02-24T04:45:10.002Z,96.25
2023-02-24T04:48:15.003Z,95.80
2023-02-24T04:51:16.766Z,96.80
2023-02-24T04:54:20.674Z,97.03
2023-02-24T04:57:22.318Z,97.59
2023-02-24T05:00:26.585Z,97.84
2023-02-24T05:03:30.128Z,98.70
2023-02-24T05:06:32.791Z,99.51
2023-02-24T05:09:34.464Z,99.60
2023-02-24T05:12:36.089Z,99.24
2023-02-24T05:15:42.705Z,99.92
2023-02-24T05:18:44.892Z,100.00
2023-02-24T05:21:46.898Z,100.00
2023-02-24T05:24:50.219Z,100.00
2023-02-24T05:27:51.950Z,100.00
2023-02-24T05:30:54.866Z,100.00
2023-02-24T05:33:59.282Z,100.00
2023-02-24T05:37:07.464Z,100.00
2023-02-24T05:40:13.341Z,100.00
2023-02-24T05:43:18.727Z,100.00
2023-02-24T05:46:28.410Z,100.00
2023-02-24T05:49:33.881Z,100.00
2023-02-24T05:52:37.169Z,100.00
2023-02-24T05:55:39.161Z,100.00
2023-02-24T05:58:40.824Z,100.00
2023-02-24T06:01:42.520Z,100.00
2023-02-24T06:04:51.460Z,100.00
2023-02-24T06:08:04.741Z,100.00
2023-02-24T06:11:08.955Z,100.00
2023-02-24T06:14:12.338Z,100.00
2023-02-24T06:17:17.104Z,100.00
2023-02-24T06:20:18.941Z,100.00
2023-02-24T06:23:20.582Z,100.00
2023-02-24T06:26:22.220Z,100.00
2023-02-24T06:29:29.322Z,100.00
2023-02-24T06:32:31.183Z,100.00
2023-02-24T06:35:33.051Z,100.00
2023-02-24T06:38:37.089Z,100.00
2023-02-24T06:41:38.712Z,100.00
2023-02-24T06:44:41.535Z,100.00
2023-02-24T06:47:43.648Z,100.00
2023-02-24T06:50:45.303Z,100.00
2023-02-24T06:53:46.932Z,100.00
2023-02-24T06:56:50.068Z,100.00
2023-02-24T06:59:52.397Z,100.00
2023-02-24T07:02:54.009Z,100.00
2023-02-24T07:06:11.111Z,100.00
2023-02-24T07:09:15.093Z,100.00
2023-02-24T07:12:21.074Z,100.00
2023-02-24T07:15:22.835Z,100.00
2023-02-24T07:18:26.678Z,100.00
2023-02-24T07:21:30.296Z,100.00
2023-02-24T07:24:39.316Z,100.00
2023-02-24T07:27:41.026Z,100.00
2023-02-24T07:30:42.951Z,100.00
2023-02-24T07:33:45.721Z,100.00
2023-02-24T07:36:49.378Z,100.00
2023-02-24T07:39:51.916Z,100.00
2023-02-24T07:42:54.012Z,100.00
2023-02-24T07:45:58.082Z,100.00
2023-02-24T07:49:00.022Z,100.00
2023-02-24T07:52:02.066Z,100.00
2023-02-24T07:55:03.933Z,100.00
2023-02-24T07:58:06.090Z,100.00
2023-02-24T08:01:23.036Z,100.00
2023-02-24T08:04:30.454Z,100.00
2023-02-24T08:07:33.348Z,100.00
2023-02-24T08:10:37.306Z,100.00
2023-02-24T08:13:38.967Z,100.00
2023-02-24T08:16:45.354Z,99.61
2023-02-24T08:19:48.977Z,98.63
2023-02-24T08:22:52.422Z,98.21
2023-02-24T08:25:54.096Z,98.51
2023-02-24T08:28:55.724Z,95.93
2023-02-24T08:31:58.973Z,96.87
2023-02-24T08:35:04.976Z,93.75
2023-02-24T08:38:18.807Z,95.15
2023-02-24T08:41:29.237Z,94.83
2023-02-24T08:44:31.120Z,93.94
2023-02-24T08:47:36.139Z,92.45
2023-02-24T08:50:38.753Z,91.38
2023-02-24T08:53:40.696Z,92.23
2023-02-24T08:56:56.068Z,89.66
2023-02-24T08:59:57.965Z,83.83
2023-02-24T09:02:59.723Z,77.63
2023-02-24T09:06:05.736Z,81.40
2023-02-24T09:09:17.562Z,73.67
2023-02-24T09:12:24.458Z,62.44
2023-02-24T09:15:41.362Z,64.01
2023-02-24T09:18:43.399Z,59.15
2023-02-24T09:21:47.632Z,55.58
2023-02-24T09:24:51.275Z,60.59
2023-02-24T09:28:25.094Z,67.71
2023-02-24T09:31:40.878Z,70.75
2023-02-24T09:34:47.278Z,71.62
2023-02-24T09:37:48.917Z,68.62
2023-02-24T09:40:50.729Z,65.09
2023-02-24T09:43:59.938Z,60.71
2023-02-24T09:47:39.749Z,59.08
2023-02-24T09:51:04.514Z,57.53
2023-02-24T09:54:14.321Z,58.75
2023-02-24T09:57:25.477Z,56.49
2023-02-24T10:00:33.597Z,60.01
2023-02-24T10:03:48.305Z,60.60
2023-02-24T10:07:08.633Z,62.79
2023-02-24T10:10:30.667Z,63.71
2023-02-24T10:13:35.268Z,61.98
2023-02-24T10:16:42.183Z,61.58
2023-02-24T10:19:44.078Z,63.25
2023-02-24T10:23:09.771Z,62.07
2023-02-24T10:26:31.992Z,58.49
2023-02-24T10:29:43.371Z,57.63
2023-02-24T10:32:53.186Z,57.98
2023-02-24T10:36:18.008Z,59.40
2023-02-24T10:39:33.329Z,59.83
2023-02-24T10:42:37.759Z,59.80
2023-02-24T10:45:45.480Z,60.89
2023-02-24T10:48:53.077Z,60.18
2023-02-24T10:51:54.674Z,57.41
2023-02-24T10:55:28.052Z,56.05
2023-02-24T10:58:52.750Z,57.75
2023-02-24T11:02:24.842Z,54.57
2023-02-24T11:05:44.086Z,56.57
2023-02-24T11:08:48.625Z,54.08
2023-02-24T11:12:09.247Z,53.92
2023-02-24T11:16:06.373Z,53.77
2023-02-24T11:19:11.166Z,53.91
2023-02-24T11:22:20.552Z,53.19
2023-02-24T11:25:41.289Z,52.40
2023-02-24T11:28:49.433Z,52.64
2023-02-24T11:32:18.489Z,52.87
2023-02-24T11:35:43.408Z,57.45
2023-02-24T11:39:17.319Z,53.96
2023-02-24T11:42:33.616Z,53.14
2023-02-24T11:45:40.700Z,52.39
2023-02-24T11:48:57.102Z,52.51
2023-02-24T11:52:04.052Z,49.55
2023-02-24T11:55:19.574Z,49.57
2023-02-24T11:58:27.247Z,51.34
2023-02-24T12:01:40.459Z,51.08
2023-02-24T12:05:10.352Z,50.61
2023-02-24T12:08:17.363Z,51.25
2023-02-24T12:11:44.790Z,51.28
2023-02-24T12:15:03.679Z,51.28
2023-02-24T12:18:33.962Z,51.60
2023-02-24T12:21:42.333Z,51.57
2023-02-24T12:24:51.974Z,51.37
2023-02-24T12:28:05.532Z,51.59
2023-02-24T12:31:14.565Z,51.50
2023-02-24T12:34:49.748Z,50.42
2023-02-24T12:37:57.508Z,51.30
2023-02-24T12:41:23.563Z,51.92
2023-02-24T12:44:57.720Z,52.45
2023-02-24T12:48:01.934Z,51.12
2023-02-24T12:51:03.547Z,51.05
2023-02-24T12:54:14.240Z,52.22
2023-02-24T12:57:29.570Z,52.38
2023-02-24T13:00:43.211Z,52.20
2023-02-24T13:04:06.589Z,51.24
2023-02-24T13:07:33.036Z,50.99
2023-02-24T13:11:05.374Z,51.04
2023-02-24T13:14:12.434Z,52.13
2023-02-24T13:17:15.274Z,53.59
2023-02-24T13:20:30.700Z,53.47
2023-02-24T13:23:33.153Z,52.92
2023-02-24T13:26:34.861Z,52.80
2023-02-24T13:29:48.697Z,52.89
2023-02-24T13:33:03.251Z,52.54
2023-02-24T13:36:10.949Z,52.56
2023-02-24T13:39:24.334Z,51.83
2023-02-24T13:42:31.192Z,51.57
2023-02-24T13:45:39.864Z,51.07
2023-02-24T13:48:50.812Z,50.79
2023-02-24T13:52:11.142Z,50.27
2023-02-24T13:55:26.661Z,50.42
2023-02-24T13:59:01.683Z,51.45
2023-02-24T14:02:22.580Z,50.29
2023-02-24T14:05:28.925Z,48.14
2023-02-24T14:08:45.680Z,48.86
2023-02-24T14:11:52.348Z,48.72
2023-02-24T14:14:54.935Z,48.40
2023-02-24T14:18:05.956Z,49.69
2023-02-24T14:21:20.977Z,49.66
2023-02-24T14:24:24.008Z,50.11
2023-02-24T14:27:27.306Z,51.76
2023-02-24T14:30:35.586Z,51.89
2023-02-24T14:33:40.638Z,51.61
2023-02-24T14:36:45.384Z,50.12
2023-02-24T14:39:55.948Z,51.46
2023-02-24T14:42:57.939Z,51.06
2023-02-24T14:46:05.962Z,52.25
2023-02-24T14:49:18.999Z,51.63
2023-02-24T14:52:41.543Z,51.86
2023-02-24T14:55:50.298Z,52.18
2023-02-24T14:59:00.661Z,51.85
2023-02-24T15:02:11.522Z,51.85
2023-02-24T15:05:13.433Z,52.63
2023-02-24T15:08:43.039Z,53.44
2023-02-24T15:11:45.294Z,53.20
2023-02-24T15:14:57.970Z,53.24
2023-02-24T15:18:04.411Z,52.56
2023-02-24T15:21:18.065Z,52.64
2023-02-24T15:24:25.809Z,52.85
2023-02-24T15:27:31.086Z,52.72
2023-02-24T15:30:37.047Z,54.00
2023-02-24T15:33:42.204Z,54.86
2023-02-24T15:36:44.274Z,55.07
2023-02-24T15:39:46.006Z,55.71
2023-02-24T15:43:12.011Z,55.96
2023-02-24T15:46:19.894Z,56.65
2023-02-24T15:49:22.115Z,57.05
2023-02-24T15:52:27.903Z,58.81
2023-02-24T15:55:30.105Z,58.29
2023-02-24T15:58:33.135Z,59.02
2023-02-24T16:01:35.923Z,61.66
2023-02-24T16:04:37.537Z,62.58
2023-02-24T16:07:39.891Z,61.88
2023-02-24T16:10:41.810Z,61.97
2023-02-24T16:13:50.384Z,62.21
2023-02-24T16:16:53.006Z,63.44
2023-02-24T16:19:56.923Z,63.23
2023-02-24T16:23:00.362Z,63.37
2023-02-24T16:26:02.477Z,64.21
2023-02-24T16:29:11.580Z,64.70
2023-02-24T16:32:14.743Z,64.50
2023-02-24T16:35:16.742Z,66.28
2023-02-24T16:38:18.681Z,66.94
2023-02-24T16:41:20.538Z,67.80
2023-02-24T16:44:23.397Z,68.05
2023-02-24T16:47:26.998Z,68.16
2023-02-24T16:50:48.641Z,71.48
2023-02-24T16:53:51.113Z,70.85
2023-02-24T16:56:52.846Z,70.29
2023-02-24T16:59:54.703Z,69.79
2023-02-24T17:02:56.395Z,70.43
2023-02-24T17:05:58.688Z,70.60
2023-02-24T17:09:00.770Z,70.95
2023-02-24T17:12:02.651Z,69.98
2023-02-24T17:15:05.028Z,69.64
2023-02-24T17:18:07.533Z,70.21
2023-02-24T17:21:14.244Z,70.58
2023-02-24T17:24:20.037Z,71.47
2023-02-24T17:27:21.940Z,71.80
2023-02-24T17:30:26.808Z,71.79
2023-02-24T17:33:28.870Z,70.83
2023-02-24T17:36:30.779Z,70.60
2023-02-24T17:39:33.032Z,70.59
2023-02-24T17:42:35.301Z,70.70
2023-02-24T17:45:42.902Z,71.44
2023-02-24T17:48:44.432Z,70.29
2023-02-24T17:51:47.408Z,72.34
2023-02-24T17:54:49.784Z,71.18
2023-02-24T17:57:57.113Z,71.10
2023-02-24T18:00:59.496Z,70.72
2023-02-24T18:04:02.157Z,71.77
2023-02-24T18:07:04.248Z,72.22
2023-02-24T18:10:06.930Z,72.65
2023-02-24T18:13:09.032Z,72.47
2023-02-24T18:16:15.829Z,72.89
2023-02-24T18:19:18.586Z,74.29
2023-02-24T18:22:21.653Z,73.26
2023-02-24T18:25:23.794Z,72.85
2023-02-24T18:28:25.894Z,75.06
2023-02-24T18:31:29.657Z,76.30
2023-02-24T18:34:32.258Z,76.63
2023-02-24T18:37:35.934Z,76.73
2023-02-24T18:40:39.723Z,78.19
2023-02-24T18:43:43.580Z,79.73
2023-02-24T18:46:45.941Z,80.07
2023-02-24T18:49:48.299Z,79.06
2023-02-24T18:52:52.470Z,79.03
2023-02-24T18:56:07.269Z,81.45
2023-02-24T18:59:09.662Z,81.36
2023-02-24T19:02:32.079Z,80.00
2023-02-24T19:05:38.794Z,82.72
2023-02-24T19:08:42.546Z,83.69
2023-02-24T19:11:45.070Z,84.00
2023-02-24T19:14:52.127Z,82.76
2023-02-24T19:17:54.559Z,83.86
2023-02-24T19:20:57.195Z,84.24
2023-02-24T19:24:08.386Z,85.08
2023-02-24T19:27:12.632Z,84.93
2023-02-24T19:30:17.072Z,85.55
2023-02-24T19:33:19.542Z,85.81
2023-02-24T19:36:22.794Z,85.74
2023-02-24T19:39:25.793Z,87.48
2023-02-24T19:42:29.063Z,88.81
2023-02-24T19:45:31.777Z,89.09
2023-02-24T19:48:35.004Z,89.29
2023-02-24T19:51:37.919Z,89.90
2023-02-24T19:54:40.581Z,89.31
2023-02-24T19:57:43.753Z,90.28
2023-02-24T20:00:46.430Z,90.11
2023-02-24T20:03:49.231Z,90.65
2023-02-24T20:06:52.692Z,91.14
2023-02-24T20:09:55.352Z,91.57
2023-02-24T20:12:58.602Z,92.06
2023-02-24T20:16:23.074Z,92.48
2023-02-24T20:19:25.270Z,92.75
2023-02-24T20:22:28.043Z,93.03
2023-02-24T20:25:30.601Z,92.65
2023-02-24T20:28:33.424Z,93.18
2023-02-24T20:31:35.657Z,92.11
2023-02-24T20:34:39.858Z,93.02
2023-02-24T20:37:44.127Z,94.04
2023-02-24T20:40:46.900Z,93.62
2023-02-24T20:43:49.404Z,94.24
2023-02-24T20:46:51.992Z,94.66
2023-02-24T20:49:56.414Z,94.73
2023-02-24T20:52:59.726Z,93.69
2023-02-24T20:56:08.033Z,95.38
2023-02-24T20:59:18.862Z,96.37
2023-02-24T21:02:20.943Z,95.65
2023-02-24T21:05:26.326Z,95.92
2023-02-24T21:08:28.204Z,96.98
2023-02-24T21:11:30.783Z,96.41
2023-02-24T21:14:33.077Z,97.71
2023-02-24T21:17:35.832Z,97.58
2023-02-24T21:20:37.730Z,96.96
2023-02-24T21:23:39.937Z,99.66
2023-02-24T21:26:41.828Z,100.00
2023-02-24T21:29:45.314Z,100.00
2023-02-24T21:32:47.079Z,100.00
2023-02-24T21:36:09.723Z,100.00
2023-02-24T21:39:15.221Z,100.00
2023-02-24T21:42:16.972Z,100.00
2023-02-24T21:45:19.557Z,100.00
2023-02-24T21:48:21.620Z,100.00
2023-02-24T21:51:24.987Z,100.00
2023-02-24T21:54:27.617Z,100.00
2023-02-24T21:57:29.753Z,100.00
2023-02-24T22:00:33.178Z,100.00
2023-02-24T22:03:34.964Z,100.00
2023-02-24T22:06:38.781Z,100.00
2023-02-24T22:09:40.556Z,100.00
2023-02-24T22:12:42.330Z,99.77
2023-02-24T22:15:44.015Z,99.60
2023-02-24T22:18:46.560Z,100.00
2023-02-24T22:21:48.322Z,99.88
2023-02-24T22:24:51.608Z,99.97
2023-02-24T22:27:53.272Z,99.81
2023-02-24T22:30:57.872Z,100.00
2023-02-24T22:34:00.194Z,99.66
2023-02-24T22:37:01.882Z,98.67
2023-02-24T22:40:03.747Z,100.00
2023-02-24T22:43:05.391Z,100.00
2023-02-24T22:46:09.369Z,99.95
2023-02-24T22:49:11.476Z,100.00
2023-02-24T22:52:16.741Z,100.00
2023-02-24T22:55:19.752Z,100.00
2023-02-24T22:58:22.132Z,99.16
2023-02-24T23:01:29.166Z,100.00
2023-02-24T23:04:31.025Z,100.00
2023-02-24T23:07:33.758Z,99.59
2023-02-24T23:10:36.061Z,99.61
2023-02-24T23:13:38.512Z,100.00
2023-02-24T23:16:42.372Z,100.00
2023-02-24T23:19:44.081Z,100.00
2023-02-24T23:22:45.721Z,99.59
2023-02-24T23:25:52.380Z,100.00
2023-02-24T23:28:55.196Z,100.00
2023-02-24T23:31:57.432Z,100.00
2023-02-24T23:34:59.265Z,100.00
2023-02-24T23:38:00.895Z,100.00
2023-02-24T23:41:07.962Z,100.00
2023-02-24T23:44:09.917Z,100.00
2023-02-24T23:47:12.303Z,100.00
2023-02-24T23:50:13.943Z,100.00
2023-02-24T23:53:15.553Z,100.00
2023-02-24T23:56:20.571Z,100.00
2023-02-24T23:59:22.964Z,100.00
